createdAt,value
2022-12-20T00:01:44.090Z,87.56
2022-12-20T00:03:48.971Z,87.32
2022-12-20T00:05:51.706Z,87.55
2022-12-20T00:07:54.317Z,87.60
2022-12-20T00:09:57.002Z,87.71
2022-12-20T00:11:59.682Z,87.57
2022-12-20T00:14:02.289Z,87.55
2022-12-20T00:16:18.485Z,87.69
2022-12-20T00:18:21.096Z,87.88
2022-12-20T00:20:23.977Z,87.69
2022-12-20T00:22:26.617Z,87.65
2022-12-20T00:24:30.675Z,87.98
2022-12-20T00:26:34.939Z,87.45
2022-12-20T00:28:38.596Z,87.84
2022-12-20T00:30:41.122Z,87.71
2022-12-20T00:32:44.995Z,87.70
2022-12-20T00:34:47.646Z,87.97
2022-12-20T00:36:50.348Z,87.45
2022-12-20T00:38:54.873Z,87.76
2022-12-20T00:41:13.268Z,87.88
2022-12-20T00:43:15.877Z,87.59
2022-12-20T00:45:18.474Z,87.67
2022-12-20T00:47:21.152Z,87.65
2022-12-20T00:49:23.771Z,87.82
2022-12-20T00:51:30.333Z,88.04
2022-12-20T00:53:33.932Z,88.01
2022-12-20T00:55:42.646Z,87.67
2022-12-20T00:57:45.229Z,88.03
2022-12-20T00:59:48.022Z,88.00
2022-12-20T01:01:50.752Z,87.85
2022-12-20T01:03:53.963Z,87.78
2022-12-20T01:05:59.579Z,87.91
2022-12-20T01:08:02.316Z,87.96
2022-12-20T01:10:05.277Z,87.58
2022-12-20T01:12:08.360Z,88.01
2022-12-20T01:14:14.145Z,87.97
2022-12-20T01:16:20.398Z,88.10
2022-12-20T01:18:23.333Z,87.40
2022-12-20T01:20:25.897Z,87.64
2022-12-20T01:22:28.640Z,87.41
2022-12-20T01:24:31.349Z,87.40
2022-12-20T01:26:33.988Z,87.55
2022-12-20T01:28:39.147Z,87.29
2022-12-20T01:30:41.746Z,87.00
2022-12-20T01:32:44.812Z,87.00
2022-12-20T01:34:47.451Z,86.87
2022-12-20T01:36:50.217Z,87.03
2022-12-20T01:39:08.286Z,86.76
2022-12-20T01:41:16.912Z,86.92
2022-12-20T01:43:20.960Z,86.92
2022-12-20T01:45:28.556Z,86.92
2022-12-20T01:47:34.947Z,86.54
2022-12-20T01:49:48.332Z,87.13
2022-12-20T01:51:59.010Z,87.04
2022-12-20T01:54:14.644Z,87.19
2022-12-20T01:56:17.547Z,87.09
2022-12-20T01:58:21.509Z,87.44
2022-12-20T02:00:24.744Z,87.39
2022-12-20T02:02:28.144Z,87.31
2022-12-20T02:04:31.260Z,87.29
2022-12-20T02:06:33.921Z,87.53
2022-12-20T02:08:36.573Z,87.47
2022-12-20T02:10:47.935Z,87.55
2022-12-20T02:12:56.662Z,87.74
2022-12-20T02:15:49.694Z,87.55
2022-12-20T02:18:10.453Z,87.37
2022-12-20T02:20:31.037Z,87.78
2022-12-20T02:23:00.104Z,87.78
2022-12-20T02:25:33.963Z,87.72
2022-12-20T02:27:54.966Z,87.56
2022-12-20T02:30:14.401Z,87.64
2022-12-20T02:32:24.915Z,87.86
2022-12-20T02:34:30.195Z,88.04
2022-12-20T02:36:32.889Z,87.62
2022-12-20T02:38:38.387Z,88.02
2022-12-20T02:40:44.054Z,87.79
2022-12-20T02:42:47.493Z,87.93
2022-12-20T02:45:16.528Z,88.46
2022-12-20T02:47:24.783Z,88.22
2022-12-20T02:49:32.141Z,88.57
2022-12-20T02:51:35.227Z,88.61
2022-12-20T02:53:38.901Z,88.49
2022-12-20T02:55:55.104Z,88.60
2022-12-20T02:58:06.508Z,88.42
2022-12-20T03:00:13.805Z,88.42
2022-12-20T03:02:17.186Z,88.26
2022-12-20T03:04:24.584Z,88.30
2022-12-20T03:06:27.812Z,88.56
2022-12-20T03:08:31.123Z,88.77
2022-12-20T03:10:33.677Z,88.43
2022-12-20T03:12:36.383Z,88.28
2022-12-20T03:14:40.070Z,88.40
2022-12-20T03:16:42.745Z,88.62
2022-12-20T03:18:46.361Z,88.60
2022-12-20T03:20:48.981Z,88.70
2022-12-20T03:22:51.679Z,88.51
2022-12-20T03:24:54.332Z,88.93
2022-12-20T03:26:56.995Z,89.03
2022-12-20T03:28:59.631Z,88.74
2022-12-20T03:31:02.344Z,88.79
2022-12-20T03:33:05.035Z,88.92
2022-12-20T03:35:08.096Z,88.57
2022-12-20T03:37:10.818Z,88.61
2022-12-20T03:39:13.442Z,88.55
2022-12-20T03:41:26.806Z,88.43
2022-12-20T03:43:29.395Z,88.91
2022-12-20T03:45:31.995Z,88.83
2022-12-20T03:47:34.729Z,88.39
2022-12-20T03:49:37.388Z,88.26
2022-12-20T03:51:39.994Z,88.45
2022-12-20T03:53:42.977Z,88.55
2022-12-20T03:55:47.603Z,89.06
2022-12-20T03:57:50.235Z,88.86
2022-12-20T03:59:54.416Z,88.58
2022-12-20T04:01:57.187Z,88.20
2022-12-20T04:04:00.043Z,88.41
2022-12-20T04:06:02.796Z,88.33
2022-12-20T04:08:05.610Z,88.02
2022-12-20T04:10:08.819Z,88.28
2022-12-20T04:12:11.632Z,88.56
2022-12-20T04:14:14.332Z,88.51
2022-12-20T04:16:22.217Z,88.55
2022-12-20T04:18:24.864Z,88.33
2022-12-20T04:20:27.499Z,87.92
2022-12-20T04:22:30.110Z,88.34
2022-12-20T04:24:32.827Z,87.65
2022-12-20T04:26:35.562Z,87.51
2022-12-20T04:28:38.208Z,87.60
2022-12-20T04:30:40.832Z,87.35
2022-12-20T04:32:43.619Z,87.30
2022-12-20T04:34:46.196Z,87.73
2022-12-20T04:36:49.268Z,87.05
2022-12-20T04:38:52.304Z,86.64
2022-12-20T04:40:56.110Z,86.60
2022-12-20T04:42:58.820Z,87.13
2022-12-20T04:45:01.577Z,86.58
2022-12-20T04:47:06.666Z,86.53
2022-12-20T04:49:09.243Z,86.62
2022-12-20T04:51:11.987Z,86.51
2022-12-20T04:53:33.726Z,86.66
2022-12-20T04:55:40.567Z,86.33
2022-12-20T04:57:43.069Z,86.69
2022-12-20T04:59:45.735Z,86.22
2022-12-20T05:01:48.403Z,85.95
2022-12-20T05:03:51.572Z,85.79
2022-12-20T05:05:54.609Z,85.49
2022-12-20T05:07:57.230Z,85.54
2022-12-20T05:10:00.084Z,85.54
2022-12-20T05:12:05.045Z,85.19
2022-12-20T05:14:08.941Z,85.60
2022-12-20T05:16:12.121Z,86.00
2022-12-20T05:18:14.727Z,85.73
2022-12-20T05:20:17.432Z,86.29
2022-12-20T05:22:38.694Z,86.60
2022-12-20T05:25:02.508Z,86.69
2022-12-20T05:27:06.178Z,87.44
2022-12-20T05:29:08.904Z,87.93
2022-12-20T05:31:11.637Z,87.96
2022-12-20T05:33:14.325Z,88.31
2022-12-20T05:35:17.305Z,88.50
2022-12-20T05:37:20.109Z,88.45
2022-12-20T05:39:22.671Z,88.45
2022-12-20T05:41:25.496Z,88.92
2022-12-20T05:43:28.171Z,88.55
2022-12-20T05:45:30.811Z,88.56
2022-12-20T05:47:34.127Z,88.39
2022-12-20T05:49:36.776Z,88.63
2022-12-20T05:51:39.423Z,88.59
2022-12-20T05:53:42.072Z,88.34
2022-12-20T05:55:52.822Z,88.86
2022-12-20T05:57:55.410Z,89.30
2022-12-20T05:59:58.006Z,88.93
2022-12-20T06:02:01.142Z,88.91
2022-12-20T06:04:04.333Z,88.66
2022-12-20T06:06:14.089Z,88.58
2022-12-20T06:08:17.456Z,88.36
2022-12-20T06:10:20.037Z,88.54
2022-12-20T06:12:23.378Z,87.71
2022-12-20T06:14:26.043Z,88.07
2022-12-20T06:16:28.792Z,88.01
2022-12-20T06:18:31.543Z,87.67
2022-12-20T06:20:37.378Z,88.15
2022-12-20T06:22:40.682Z,88.75
2022-12-20T06:24:48.182Z,88.88
2022-12-20T06:26:54.524Z,88.29
2022-12-20T06:29:02.240Z,88.13
2022-12-20T06:31:04.998Z,88.47
2022-12-20T06:33:07.952Z,88.12
2022-12-20T06:35:10.995Z,88.05
2022-12-20T06:37:13.852Z,88.00
2022-12-20T06:39:16.531Z,87.41
2022-12-20T06:41:19.821Z,87.51
2022-12-20T06:43:22.624Z,86.28
2022-12-20T06:45:25.357Z,86.87
2022-12-20T06:47:28.241Z,86.98
2022-12-20T06:49:31.070Z,86.71
2022-12-20T06:51:33.953Z,86.71
2022-12-20T06:53:36.598Z,86.95
2022-12-20T06:55:40.157Z,85.77
2022-12-20T06:57:43.227Z,85.04
2022-12-20T06:59:45.981Z,84.63
2022-12-20T07:01:48.711Z,83.18
2022-12-20T07:03:51.440Z,84.68
2022-12-20T07:05:54.816Z,83.84
2022-12-20T07:07:57.519Z,85.07
2022-12-20T07:10:00.142Z,84.59
2022-12-20T07:12:02.902Z,85.39
2022-12-20T07:14:05.604Z,84.42
2022-12-20T07:16:08.498Z,84.19
2022-12-20T07:18:11.664Z,84.64
2022-12-20T07:20:15.129Z,84.37
2022-12-20T07:22:18.012Z,84.74
2022-12-20T07:24:20.993Z,83.91
2022-12-20T07:26:23.650Z,84.05
2022-12-20T07:28:27.525Z,83.94
2022-12-20T07:30:31.488Z,84.22
2022-12-20T07:32:35.210Z,82.33
2022-12-20T07:34:38.318Z,83.88
2022-12-20T07:36:41.171Z,84.31
2022-12-20T07:38:43.915Z,83.97
2022-12-20T07:40:46.571Z,84.01
2022-12-20T07:42:49.276Z,84.16
2022-12-20T07:44:51.953Z,84.90
2022-12-20T07:46:54.577Z,84.59
2022-12-20T07:48:59.257Z,84.86
2022-12-20T07:51:06.455Z,84.64
2022-12-20T07:53:09.829Z,84.56
2022-12-20T07:55:13.709Z,84.95
2022-12-20T07:57:22.738Z,84.98
2022-12-20T07:59:32.164Z,84.05
2022-12-20T08:01:35.622Z,83.81
2022-12-20T08:04:02.945Z,84.16
2022-12-20T08:06:07.733Z,84.04
2022-12-20T08:08:10.619Z,84.19
2022-12-20T08:10:16.616Z,84.37
2022-12-20T08:12:20.492Z,83.86
2022-12-20T08:14:23.145Z,84.25
2022-12-20T08:16:26.573Z,84.20
2022-12-20T08:18:29.215Z,84.59
2022-12-20T08:20:32.928Z,83.85
2022-12-20T08:22:35.882Z,82.88
2022-12-20T08:24:38.630Z,83.57
2022-12-20T08:26:42.363Z,83.90
2022-12-20T08:28:45.042Z,83.33
2022-12-20T08:30:47.832Z,83.43
2022-12-20T08:32:50.504Z,82.68
2022-12-20T08:34:53.861Z,83.87
2022-12-20T08:36:56.448Z,83.52
2022-12-20T08:38:58.986Z,80.30
2022-12-20T08:41:09.036Z,81.56
2022-12-20T08:43:11.696Z,82.14
2022-12-20T08:45:14.455Z,81.44
2022-12-20T08:47:17.039Z,82.36
2022-12-20T08:49:19.871Z,83.33
2022-12-20T08:51:22.666Z,83.60
2022-12-20T08:53:25.543Z,83.48
2022-12-20T08:55:29.579Z,82.75
2022-12-20T08:57:32.765Z,82.72
2022-12-20T08:59:35.361Z,82.58
2022-12-20T09:01:38.066Z,82.78
2022-12-20T09:03:41.539Z,81.93
2022-12-20T09:05:46.408Z,81.93
2022-12-20T09:07:49.188Z,81.99
2022-12-20T09:09:51.809Z,82.46
2022-12-20T09:11:54.491Z,81.46
2022-12-20T09:13:59.231Z,81.43
2022-12-20T09:16:04.797Z,81.25
2022-12-20T09:18:07.422Z,81.46
2022-12-20T09:20:10.259Z,81.29
2022-12-20T09:22:12.960Z,81.79
2022-12-20T09:24:15.592Z,81.75
2022-12-20T09:26:19.746Z,82.12
2022-12-20T09:28:22.981Z,81.90
2022-12-20T09:30:25.699Z,81.76
2022-12-20T09:32:28.360Z,81.19
2022-12-20T09:34:31.114Z,80.89
2022-12-20T09:36:34.027Z,80.63
2022-12-20T09:38:36.979Z,80.45
2022-12-20T09:40:45.737Z,81.72
2022-12-20T09:42:50.184Z,80.76
2022-12-20T09:44:53.935Z,80.48
2022-12-20T09:47:08.245Z,80.23
2022-12-20T09:49:17.470Z,81.00
2022-12-20T09:51:20.023Z,80.03
2022-12-20T09:53:54.444Z,79.50
2022-12-20T09:56:03.846Z,80.53
2022-12-20T09:58:25.481Z,80.48
2022-12-20T10:00:28.736Z,81.32
2022-12-20T10:04:55.789Z,81.58
2022-12-20T10:07:22.771Z,81.57
2022-12-20T10:09:43.444Z,82.40
2022-12-20T10:11:52.755Z,83.00
2022-12-20T10:14:13.072Z,82.74
2022-12-20T10:16:39.540Z,83.08
2022-12-20T10:19:28.313Z,83.51
2022-12-20T10:21:44.654Z,84.01
2022-12-20T10:24:01.712Z,84.16
2022-12-20T10:26:10.950Z,84.09
2022-12-20T10:28:16.492Z,84.52
2022-12-20T10:30:22.161Z,85.11
2022-12-20T10:32:24.876Z,84.57
2022-12-20T10:34:33.336Z,84.17
2022-12-20T10:36:39.247Z,83.82
2022-12-20T10:38:47.344Z,84.05
2022-12-20T10:41:21.305Z,84.89
2022-12-20T10:43:21.991Z,84.80
2022-12-20T10:45:24.528Z,84.73
2022-12-20T10:47:34.749Z,84.36
2022-12-20T10:49:41.290Z,84.76
2022-12-20T10:51:53.058Z,85.50
2022-12-20T10:54:02.840Z,85.52
2022-12-20T10:56:27.579Z,85.42
2022-12-20T10:58:35.805Z,86.22
2022-12-20T11:00:38.804Z,86.45
2022-12-20T11:02:43.004Z,87.01
2022-12-20T11:05:20.496Z,87.27
2022-12-20T11:07:27.175Z,88.23
2022-12-20T11:09:36.119Z,88.65
2022-12-20T11:11:38.853Z,88.96
2022-12-20T11:13:41.828Z,89.03
2022-12-20T11:15:50.233Z,89.05
2022-12-20T11:18:00.109Z,89.54
2022-12-20T11:20:44.064Z,89.94
2022-12-20T11:23:01.845Z,90.28
2022-12-20T11:25:04.322Z,90.00
2022-12-20T11:27:43.691Z,90.51
2022-12-20T11:30:16.287Z,89.83
2022-12-20T11:32:53.854Z,90.38
2022-12-20T11:35:19.336Z,90.21
2022-12-20T11:37:24.782Z,90.64
2022-12-20T11:39:46.693Z,89.75
2022-12-20T11:42:29.727Z,90.67
2022-12-20T11:44:53.934Z,90.65
2022-12-20T11:47:06.715Z,90.36
2022-12-20T11:49:33.624Z,91.36
2022-12-20T11:51:53.499Z,91.63
2022-12-20T11:54:17.057Z,91.04
2022-12-20T11:56:29.370Z,91.35
2022-12-20T11:58:47.455Z,91.58
2022-12-20T12:01:13.133Z,92.10
2022-12-20T12:03:29.188Z,92.40
2022-12-20T12:05:41.937Z,92.66
2022-12-20T12:07:49.570Z,92.94
2022-12-20T12:10:25.898Z,92.97
2022-12-20T12:12:45.564Z,93.96
2022-12-20T12:15:00.530Z,94.31
2022-12-20T12:17:21.935Z,93.92
2022-12-20T12:19:28.474Z,95.01
2022-12-20T12:21:45.981Z,94.93
2022-12-20T12:23:55.823Z,94.26
2022-12-20T12:26:08.076Z,94.76
2022-12-20T12:28:14.550Z,94.94
2022-12-20T12:30:18.001Z,94.91
2022-12-20T12:32:27.297Z,95.39
2022-12-20T12:34:45.620Z,94.85
2022-12-20T12:36:48.497Z,95.14
2022-12-20T12:39:21.745Z,95.52
2022-12-20T12:41:49.279Z,94.81
2022-12-20T12:44:00.170Z,95.24
2022-12-20T12:46:14.196Z,94.75
2022-12-20T12:48:26.929Z,94.91
2022-12-20T12:50:34.031Z,95.79
2022-12-20T12:52:49.693Z,96.15
2022-12-20T12:54:52.394Z,96.57
2022-12-20T12:57:21.241Z,96.60
2022-12-20T12:59:24.442Z,96.20
2022-12-20T13:01:54.101Z,96.77
2022-12-20T13:03:56.967Z,97.01
2022-12-20T13:06:22.357Z,97.19
2022-12-20T13:08:49.330Z,97.79
2022-12-20T13:10:51.859Z,97.49
2022-12-20T13:13:00.018Z,97.17
2022-12-20T13:15:22.221Z,97.47
2022-12-20T13:17:45.053Z,97.17
2022-12-20T13:19:55.820Z,97.55
2022-12-20T13:22:16.986Z,98.12
2022-12-20T13:24:42.698Z,98.34
2022-12-20T13:26:55.861Z,98.40
2022-12-20T13:29:24.803Z,98.06
2022-12-20T13:31:27.423Z,98.20
2022-12-20T13:34:25.504Z,98.58
2022-12-20T13:36:36.320Z,98.40
2022-12-20T13:38:59.882Z,98.60
2022-12-20T13:41:10.807Z,98.43
2022-12-20T13:43:22.301Z,98.82
2022-12-20T13:45:26.508Z,98.56
2022-12-20T13:47:34.891Z,98.79
2022-12-20T13:49:43.375Z,98.96
2022-12-20T13:51:46.070Z,98.71
2022-12-20T13:53:57.131Z,98.99
2022-12-20T13:56:19.604Z,99.51
2022-12-20T13:58:36.898Z,99.60
2022-12-20T14:00:39.970Z,99.30
2022-12-20T14:02:44.255Z,99.12
2022-12-20T14:04:56.281Z,99.22
2022-12-20T14:07:01.934Z,99.42
2022-12-20T14:09:05.932Z,99.61
2022-12-20T14:11:11.342Z,99.57
2022-12-20T14:13:21.371Z,99.20
2022-12-20T14:15:27.579Z,99.70
2022-12-20T14:17:32.650Z,99.43
2022-12-20T14:19:35.263Z,99.04
2022-12-20T14:21:42.663Z,99.88
2022-12-20T14:23:50.533Z,99.27
2022-12-20T14:25:57.336Z,99.12
2022-12-20T14:28:00.571Z,99.29
2022-12-20T14:30:05.002Z,99.09
2022-12-20T14:32:18.781Z,99.08
2022-12-20T14:34:36.727Z,99.49
2022-12-20T14:36:46.666Z,99.11
2022-12-20T14:38:51.708Z,99.35
2022-12-20T14:40:56.077Z,99.45
2022-12-20T14:42:58.934Z,99.63
2022-12-20T14:45:20.079Z,99.52
2022-12-20T14:47:27.837Z,98.81
2022-12-20T14:49:36.806Z,99.25
2022-12-20T14:51:47.018Z,99.30
2022-12-20T14:53:56.062Z,98.87
2022-12-20T14:55:58.889Z,99.11
2022-12-20T14:58:06.074Z,98.81
2022-12-20T15:00:27.783Z,99.32
2022-12-20T15:02:59.473Z,98.94
2022-12-20T15:05:28.022Z,98.87
2022-12-20T15:07:32.342Z,98.74
2022-12-20T15:09:34.917Z,98.74
2022-12-20T15:11:38.589Z,99.22
2022-12-20T15:13:56.957Z,98.79
2022-12-20T15:16:27.395Z,98.91
2022-12-20T15:18:30.600Z,98.88
2022-12-20T15:20:33.248Z,99.14
2022-12-20T15:22:35.813Z,98.73
2022-12-20T15:24:38.449Z,99.19
2022-12-20T15:26:41.796Z,99.37
2022-12-20T15:28:44.822Z,99.50
2022-12-20T15:30:48.771Z,99.11
2022-12-20T15:32:55.606Z,99.22
2022-12-20T15:34:58.892Z,98.87
2022-12-20T15:37:02.735Z,98.81
2022-12-20T15:39:13.535Z,99.11
2022-12-20T15:41:37.068Z,99.29
2022-12-20T15:43:39.753Z,99.08
2022-12-20T15:45:46.882Z,99.36
2022-12-20T15:47:49.492Z,98.97
2022-12-20T15:49:52.309Z,99.09
2022-12-20T15:51:55.803Z,99.28
2022-12-20T15:54:00.368Z,99.30
2022-12-20T15:56:03.433Z,99.26
2022-12-20T15:58:06.057Z,99.54
2022-12-20T16:00:10.434Z,99.37
2022-12-20T16:02:28.103Z,99.02
2022-12-20T16:04:32.706Z,99.57
2022-12-20T16:06:35.547Z,99.36
2022-12-20T16:08:39.253Z,99.60
2022-12-20T16:10:43.074Z,99.27
2022-12-20T16:12:45.927Z,99.36
2022-12-20T16:14:48.525Z,99.66
2022-12-20T16:17:01.139Z,99.24
2022-12-20T16:19:04.199Z,99.04
2022-12-20T16:21:24.878Z,99.14
2022-12-20T16:23:27.552Z,98.88
2022-12-20T16:25:33.302Z,98.90
2022-12-20T16:27:35.975Z,98.72
2022-12-20T16:29:38.581Z,97.97
2022-12-20T16:31:43.641Z,98.71
2022-12-20T16:33:46.316Z,98.52
2022-12-20T16:35:48.979Z,98.62
2022-12-20T16:37:51.609Z,98.59
2022-12-20T16:39:54.216Z,98.69
2022-12-20T16:41:56.947Z,98.93
2022-12-20T16:44:01.643Z,98.39
2022-12-20T16:46:04.492Z,99.15
2022-12-20T16:48:08.244Z,98.71
2022-12-20T16:50:12.515Z,98.95
2022-12-20T16:52:18.888Z,98.40
2022-12-20T16:54:23.286Z,98.51
2022-12-20T16:56:27.071Z,98.48
2022-12-20T16:59:00.135Z,98.24
2022-12-20T17:00:53.638Z,98.47
2022-12-20T17:02:57.179Z,98.19
2022-12-20T17:05:00.889Z,98.49
2022-12-20T17:07:03.936Z,98.55
2022-12-20T17:11:32.177Z,97.96
2022-12-20T17:13:34.783Z,98.03
2022-12-20T17:15:39.182Z,98.08
2022-12-20T17:17:41.779Z,98.44
2022-12-20T17:19:44.401Z,98.20
2022-12-20T17:24:20.947Z,97.89
2022-12-20T17:26:29.199Z,98.36
2022-12-20T17:28:32.024Z,98.28
2022-12-20T17:30:34.597Z,98.23
2022-12-20T17:32:37.417Z,98.20
2022-12-20T17:34:39.932Z,98.12
2022-12-20T17:36:42.560Z,98.18
2022-12-20T17:38:45.368Z,97.89
2022-12-20T17:40:47.956Z,98.04
2022-12-20T17:42:50.734Z,97.87
2022-12-20T17:44:53.278Z,98.43
2022-12-20T17:46:57.191Z,98.25
2022-12-20T17:48:59.816Z,98.67
2022-12-20T17:51:03.064Z,98.41
2022-12-20T17:53:05.634Z,98.59
2022-12-20T17:55:15.866Z,98.23
2022-12-20T17:57:18.487Z,98.51
2022-12-20T17:59:22.516Z,97.78
2022-12-20T18:01:27.550Z,98.48
2022-12-20T18:04:02.203Z,98.40
2022-12-20T18:05:52.850Z,98.45
2022-12-20T18:07:56.408Z,99.01
2022-12-20T18:09:59.379Z,98.98
2022-12-20T18:12:01.940Z,98.83
2022-12-20T18:14:04.730Z,98.93
2022-12-20T18:16:08.087Z,99.10
2022-12-20T18:18:10.645Z,98.77
2022-12-20T18:20:13.674Z,98.90
2022-12-20T18:22:16.236Z,97.87
2022-12-20T18:24:20.134Z,97.73
2022-12-20T18:26:31.885Z,98.03
2022-12-20T18:28:36.957Z,98.01
2022-12-20T18:30:39.577Z,97.70
2022-12-20T18:32:42.342Z,97.73
2022-12-20T18:34:45.084Z,97.51
2022-12-20T18:36:47.771Z,97.59
2022-12-20T18:38:51.810Z,97.73
2022-12-20T18:40:54.494Z,96.77
2022-12-20T18:43:01.069Z,96.62
2022-12-20T18:45:09.808Z,96.85
2022-12-20T18:47:12.457Z,96.89
2022-12-20T18:49:15.099Z,96.92
2022-12-20T18:51:20.629Z,97.28
2022-12-20T18:53:23.223Z,96.79
2022-12-20T18:55:25.874Z,97.10
2022-12-20T18:57:28.507Z,96.99
2022-12-20T18:59:31.147Z,96.98
2022-12-20T19:01:35.199Z,96.98
2022-12-20T19:03:37.941Z,96.97
2022-12-20T19:05:41.113Z,96.88
2022-12-20T19:07:43.761Z,97.62
2022-12-20T19:09:46.327Z,97.34
2022-12-20T19:11:54.594Z,97.50
2022-12-20T19:13:59.445Z,97.30
2022-12-20T19:16:07.995Z,97.75
2022-12-20T19:18:10.845Z,97.43
2022-12-20T19:20:13.596Z,97.45
2022-12-20T19:22:16.157Z,97.08
2022-12-20T19:24:18.770Z,97.28
2022-12-20T19:26:23.562Z,97.11
2022-12-20T19:28:26.144Z,97.49
2022-12-20T19:30:30.234Z,97.46
2022-12-20T19:32:33.093Z,97.20
2022-12-20T19:34:35.685Z,97.52
2022-12-20T19:36:40.930Z,97.24
2022-12-20T19:38:47.693Z,97.35
2022-12-20T19:40:54.100Z,96.93
2022-12-20T19:42:56.702Z,97.25
2022-12-20T19:44:59.403Z,97.18
2022-12-20T19:47:05.437Z,97.39
2022-12-20T19:49:08.407Z,97.05
2022-12-20T19:51:12.833Z,96.49
2022-12-20T19:53:15.546Z,96.59
2022-12-20T19:55:18.190Z,96.74
2022-12-20T19:57:20.760Z,96.84
2022-12-20T19:59:23.536Z,97.29
2022-12-20T20:01:27.915Z,97.11
2022-12-20T20:03:31.116Z,97.08
2022-12-20T20:05:35.171Z,97.25
2022-12-20T20:07:37.730Z,96.99
2022-12-20T20:09:40.274Z,97.25
2022-12-20T20:11:43.143Z,96.74
2022-12-20T20:13:46.049Z,96.85
2022-12-20T20:15:53.068Z,96.89
2022-12-20T20:17:55.863Z,96.81
2022-12-20T20:19:58.381Z,96.81
2022-12-20T20:22:00.922Z,96.27
2022-12-20T20:24:04.213Z,96.63
2022-12-20T20:26:13.856Z,96.74
2022-12-20T20:28:16.581Z,96.89
2022-12-20T20:30:19.299Z,96.60
2022-12-20T20:32:21.991Z,96.59
2022-12-20T20:34:24.630Z,96.27
2022-12-20T20:36:28.345Z,96.40
2022-12-20T20:38:33.436Z,96.83
2022-12-20T20:40:36.192Z,96.57
2022-12-20T20:42:39.131Z,95.84
2022-12-20T20:44:41.695Z,96.04
2022-12-20T20:46:44.557Z,96.49
2022-12-20T20:48:47.459Z,96.36
2022-12-20T20:50:50.044Z,96.60
2022-12-20T20:52:52.655Z,96.12
2022-12-20T20:54:55.393Z,96.22
2022-12-20T20:56:57.943Z,96.49
2022-12-20T20:59:05.816Z,95.39
2022-12-20T21:01:11.444Z,95.95
2022-12-20T21:03:14.380Z,95.80
2022-12-20T21:07:42.747Z,95.39
2022-12-20T21:09:45.544Z,95.45
2022-12-20T21:11:48.317Z,95.17
2022-12-20T21:13:51.281Z,94.86
2022-12-20T21:15:54.275Z,95.11
2022-12-20T21:17:56.953Z,95.22
2022-12-20T21:19:59.697Z,95.06
2022-12-20T21:22:02.541Z,95.20
2022-12-20T21:24:05.334Z,95.18
2022-12-20T21:26:08.027Z,95.78
2022-12-20T21:28:13.989Z,95.26
2022-12-20T21:30:20.326Z,95.21
2022-12-20T21:32:23.056Z,95.21
2022-12-20T21:34:25.720Z,94.89
2022-12-20T21:36:28.407Z,94.71
2022-12-20T21:38:31.431Z,94.74
2022-12-20T21:40:34.034Z,94.76
2022-12-20T21:42:36.857Z,95.01
2022-12-20T21:44:39.497Z,95.14
2022-12-20T21:46:42.230Z,95.09
2022-12-20T21:49:03.767Z,94.86
2022-12-20T21:51:27.135Z,94.68
2022-12-20T21:53:31.085Z,95.11
2022-12-20T21:55:33.718Z,95.55
2022-12-20T21:57:36.341Z,95.48
2022-12-20T21:59:38.863Z,95.27
2022-12-20T22:01:41.788Z,95.11
2022-12-20T22:03:44.870Z,95.16
2022-12-20T22:05:48.789Z,95.15
2022-12-20T22:07:51.341Z,95.47
2022-12-20T22:09:53.894Z,95.76
2022-12-20T22:11:56.716Z,95.52
2022-12-20T22:13:59.583Z,95.38
2022-12-20T22:16:19.940Z,95.53
2022-12-20T22:18:24.206Z,95.98
2022-12-20T22:20:26.778Z,95.95
2022-12-20T22:22:29.386Z,95.91
2022-12-20T22:24:32.037Z,95.42
2022-12-20T22:26:36.050Z,95.71
2022-12-20T22:28:40.230Z,95.49
2022-12-20T22:30:43.322Z,95.24
2022-12-20T22:32:45.985Z,95.58
2022-12-20T22:34:48.955Z,95.55
2022-12-20T22:36:51.598Z,95.53
2022-12-20T22:38:55.958Z,95.19
2022-12-20T22:41:22.499Z,94.91
2022-12-20T22:43:26.193Z,94.92
2022-12-20T22:45:28.888Z,95.47
2022-12-20T22:47:31.555Z,94.58
2022-12-20T22:49:34.149Z,94.22
2022-12-20T22:51:36.712Z,94.38
2022-12-20T22:53:40.452Z,94.44
2022-12-20T22:55:42.982Z,93.78
2022-12-20T22:57:45.529Z,93.78
2022-12-20T22:59:48.230Z,94.03
2022-12-20T23:01:50.987Z,93.87
2022-12-20T23:03:53.797Z,94.00
2022-12-20T23:05:59.021Z,93.98
2022-12-20T23:08:01.640Z,93.99
2022-12-20T23:10:04.555Z,93.91
2022-12-20T23:12:27.024Z,94.38
2022-12-20T23:14:48.424Z,94.54
2022-12-20T23:16:51.340Z,94.14
2022-12-20T23:18:55.767Z,94.30
2022-12-20T23:21:16.984Z,94.14
2022-12-20T23:23:19.497Z,94.15
2022-12-20T23:25:22.119Z,93.11
2022-12-20T23:27:25.179Z,93.94
2022-12-20T23:29:28.110Z,94.56
2022-12-20T23:31:31.884Z,93.82
2022-12-20T23:33:35.103Z,94.33
2022-12-20T23:35:37.778Z,94.70
2022-12-20T23:37:40.704Z,93.95
2022-12-20T23:39:43.299Z,94.54
2022-12-20T23:41:46.505Z,94.85
2022-12-20T23:43:49.129Z,94.61
2022-12-20T23:45:51.804Z,95.01
2022-12-20T23:47:54.417Z,95.00
2022-12-20T23:49:57.132Z,95.10
2022-12-20T23:51:59.672Z,94.82
2022-12-20T23:54:02.359Z,94.83
2022-12-20T23:56:05.195Z,94.86
2022-12-20T23:58:07.830Z,94.75
